createdAt,value
2019-06-27T00:00:01.912Z,26.90
2019-06-27T00:02:30.313Z,26.92
2019-06-27T00:04:58.746Z,26.86
2019-06-27T00:07:27.250Z,26.80
2019-06-27T00:09:55.655Z,26.76
2019-06-27T00:12:24.062Z,26.74
2019-06-27T00:14:52.509Z,26.77
2019-06-27T00:17:20.912Z,26.82
2019-06-27T00:19:49.376Z,26.83
2019-06-27T00:22:17.928Z,26.81
2019-06-27T00:24:46.314Z,26.76
2019-06-27T00:27:14.714Z,26.74
2019-06-27T00:29:43.258Z,26.70
2019-06-27T00:32:11.670Z,26.75
2019-06-27T00:34:40.079Z,26.77
2019-06-27T00:37:08.512Z,26.74
2019-06-27T00:39:36.946Z,26.70
2019-06-27T00:42:05.344Z,26.69
2019-06-27T00:44:33.793Z,26.64
2019-06-27T00:47:02.196Z,26.60
2019-06-27T00:49:30.596Z,26.56
2019-06-27T00:51:59.020Z,26.47
2019-06-27T00:54:27.521Z,26.39
2019-06-27T00:57:04.022Z,26.31
2019-06-27T00:59:26.041Z,26.24
2019-06-27T01:01:54.442Z,26.19
2019-06-27T01:04:22.861Z,26.20
2019-06-27T01:06:54.285Z,26.23
2019-06-27T01:09:22.686Z,26.26
2019-06-27T01:11:51.156Z,26.27
2019-06-27T01:14:19.798Z,26.30
2019-06-27T01:16:48.268Z,26.32
2019-06-27T01:19:16.670Z,26.33
2019-06-27T01:21:45.242Z,26.31
2019-06-27T01:24:13.645Z,26.27
2019-06-27T01:26:42.044Z,26.23
2019-06-27T01:29:10.576Z,26.24
2019-06-27T01:31:38.976Z,26.22
2019-06-27T01:34:07.499Z,26.22
2019-06-27T01:36:36.039Z,26.21
2019-06-27T01:39:05.576Z,26.18
2019-06-27T01:41:33.978Z,26.10
2019-06-27T01:44:02.440Z,26.09
2019-06-27T01:46:30.845Z,26.07
2019-06-27T01:48:59.242Z,26.01
2019-06-27T01:51:27.828Z,25.94
2019-06-27T01:53:56.260Z,25.90
2019-06-27T01:56:24.636Z,25.86
2019-06-27T01:58:53.177Z,25.82
2019-06-27T02:01:21.656Z,25.83
2019-06-27T02:03:50.060Z,25.81
2019-06-27T02:06:18.499Z,25.74
2019-06-27T02:08:46.898Z,25.71
2019-06-27T02:11:15.301Z,25.67
2019-06-27T02:13:43.859Z,25.68
2019-06-27T02:16:12.332Z,25.71
2019-06-27T02:18:40.734Z,25.72
2019-06-27T02:21:09.165Z,25.75
2019-06-27T02:23:37.617Z,25.70
2019-06-27T02:26:05.971Z,25.64
2019-06-27T02:28:34.433Z,25.59
2019-06-27T02:31:02.839Z,25.50
2019-06-27T02:33:31.241Z,25.47
2019-06-27T02:35:59.665Z,25.41
2019-06-27T02:38:28.076Z,25.38
2019-06-27T02:40:58.693Z,25.35
2019-06-27T02:43:26.748Z,25.35
2019-06-27T02:45:55.143Z,25.33
2019-06-27T02:48:23.551Z,25.29
2019-06-27T02:50:51.999Z,25.24
2019-06-27T02:53:20.406Z,25.19
2019-06-27T02:55:48.801Z,25.20
2019-06-27T02:58:29.830Z,25.19
2019-06-27T03:00:47.431Z,25.20
2019-06-27T03:03:15.822Z,25.22
2019-06-27T03:05:44.250Z,25.24
2019-06-27T03:08:12.738Z,25.23
2019-06-27T03:10:41.198Z,25.20
2019-06-27T03:13:09.624Z,25.17
2019-06-27T03:15:38.112Z,25.19
2019-06-27T03:18:06.518Z,25.20
2019-06-27T03:20:34.950Z,25.19
2019-06-27T03:23:03.369Z,25.19
2019-06-27T03:25:31.745Z,25.18
2019-06-27T03:28:00.201Z,25.15
2019-06-27T03:30:28.599Z,25.10
2019-06-27T03:32:57.072Z,25.05
2019-06-27T03:35:25.635Z,25.02
2019-06-27T03:37:54.036Z,25.00
2019-06-27T03:40:22.571Z,24.94
2019-06-27T03:42:51.103Z,24.91
2019-06-27T03:45:21.051Z,24.89
2019-06-27T03:47:49.457Z,24.89
2019-06-27T03:50:17.874Z,24.89
2019-06-27T03:52:46.354Z,24.87
2019-06-27T03:55:14.815Z,24.85
2019-06-27T03:57:45.301Z,24.86
2019-06-27T04:00:16.426Z,24.85
2019-06-27T04:02:44.819Z,24.86
2019-06-27T04:05:13.253Z,24.84
2019-06-27T04:07:41.657Z,24.88
2019-06-27T04:10:10.246Z,24.91
2019-06-27T04:12:38.674Z,24.92
2019-06-27T04:15:28.582Z,24.93
2019-06-27T04:17:57.004Z,24.96
2019-06-27T04:20:25.479Z,24.96
2019-06-27T04:22:53.881Z,24.91
2019-06-27T04:25:22.323Z,24.91
2019-06-27T04:27:50.737Z,24.93
2019-06-27T04:30:19.471Z,24.99
2019-06-27T04:32:47.958Z,24.99
2019-06-27T04:35:16.436Z,24.93
2019-06-27T04:37:44.834Z,24.95
2019-06-27T04:40:13.466Z,24.96
2019-06-27T04:42:41.936Z,24.93
2019-06-27T04:45:10.439Z,24.93
2019-06-27T04:47:39.049Z,24.93
2019-06-27T04:50:07.554Z,24.97
2019-06-27T04:52:36.220Z,25.01
2019-06-27T04:55:06.706Z,25.02
2019-06-27T04:57:35.128Z,25.00
2019-06-27T05:00:04.451Z,24.99
2019-06-27T05:02:35.015Z,24.87
2019-06-27T05:05:03.495Z,24.88
2019-06-27T05:07:31.905Z,24.95
2019-06-27T05:10:00.356Z,25.00
2019-06-27T05:12:28.768Z,25.07
2019-06-27T05:14:57.162Z,25.11
2019-06-27T05:17:25.584Z,25.14
2019-06-27T05:19:53.986Z,25.18
2019-06-27T05:22:22.388Z,25.24
2019-06-27T05:24:50.816Z,25.30
2019-06-27T05:27:19.268Z,25.34
2019-06-27T05:29:47.665Z,25.41
2019-06-27T05:32:16.098Z,25.47
2019-06-27T05:34:44.604Z,25.47
2019-06-27T05:37:13.092Z,25.49
2019-06-27T05:39:41.533Z,25.54
2019-06-27T05:42:10.088Z,25.63
2019-06-27T05:44:38.490Z,25.71
2019-06-27T05:47:06.916Z,25.73
2019-06-27T05:49:35.326Z,25.73
2019-06-27T05:52:03.795Z,25.76
2019-06-27T05:54:32.325Z,25.80
2019-06-27T05:57:00.708Z,25.85
2019-06-27T05:59:29.156Z,25.89
2019-06-27T06:01:57.667Z,25.90
2019-06-27T06:04:26.064Z,25.98
2019-06-27T06:06:54.471Z,26.04
2019-06-27T06:09:23.015Z,26.16
2019-06-27T06:11:51.548Z,26.24
2019-06-27T06:14:19.957Z,26.28
2019-06-27T06:16:48.378Z,26.32
2019-06-27T06:19:16.842Z,26.39
2019-06-27T06:21:45.248Z,26.41
2019-06-27T06:24:13.791Z,26.48
2019-06-27T06:26:42.207Z,26.52
2019-06-27T06:29:10.659Z,26.59
2019-06-27T06:31:39.334Z,26.64
2019-06-27T06:34:07.750Z,26.68
2019-06-27T06:36:36.151Z,26.73
2019-06-27T06:39:05.604Z,26.80
2019-06-27T06:41:34.032Z,26.79
2019-06-27T06:44:02.698Z,26.80
2019-06-27T06:46:31.114Z,26.84
2019-06-27T06:48:59.519Z,26.91
2019-06-27T06:51:27.919Z,27.01
2019-06-27T06:53:56.472Z,27.07
2019-06-27T06:56:24.896Z,27.14
2019-06-27T06:58:53.310Z,27.22
2019-06-27T07:01:21.836Z,27.30
2019-06-27T07:03:50.249Z,27.39
2019-06-27T07:06:18.655Z,27.44
2019-06-27T07:08:47.200Z,27.46
2019-06-27T07:11:15.707Z,27.50
2019-06-27T07:13:44.083Z,27.53
2019-06-27T07:16:12.538Z,27.55
2019-06-27T07:18:40.929Z,27.60
2019-06-27T07:21:09.348Z,27.64
2019-06-27T07:23:37.765Z,27.74
2019-06-27T07:26:06.161Z,27.83
2019-06-27T07:28:34.563Z,27.91
2019-06-27T07:31:16.836Z,28.01
2019-06-27T07:33:33.156Z,28.14
2019-06-27T07:36:01.558Z,28.24
2019-06-27T07:38:29.989Z,28.37
2019-06-27T07:40:58.397Z,28.47
2019-06-27T07:43:26.790Z,28.55
2019-06-27T07:45:55.387Z,28.63
2019-06-27T07:48:23.848Z,28.86
2019-06-27T07:50:52.252Z,28.86
2019-06-27T07:53:20.688Z,29.03
2019-06-27T07:55:49.184Z,29.03
2019-06-27T07:58:17.577Z,29.10
2019-06-27T08:00:46.012Z,29.14
2019-06-27T08:03:14.411Z,29.16
2019-06-27T08:05:42.809Z,29.22
2019-06-27T08:08:11.237Z,29.27
2019-06-27T08:10:39.770Z,29.29
2019-06-27T08:13:08.118Z,29.35
2019-06-27T08:15:36.662Z,29.35
2019-06-27T08:18:05.060Z,29.56
2019-06-27T08:20:33.468Z,29.68
2019-06-27T08:23:01.959Z,29.77
2019-06-27T08:25:30.350Z,29.85
2019-06-27T08:27:58.821Z,29.94
2019-06-27T08:30:27.704Z,30.02
2019-06-27T08:32:56.115Z,30.11
2019-06-27T08:35:24.592Z,30.17
2019-06-27T08:37:53.011Z,30.25
2019-06-27T08:40:21.594Z,30.35
2019-06-27T08:42:50.053Z,30.47
2019-06-27T08:45:20.353Z,30.56
2019-06-27T08:47:48.786Z,30.66
2019-06-27T08:50:17.830Z,30.75
2019-06-27T08:52:46.404Z,30.83
2019-06-27T08:55:15.041Z,30.89
2019-06-27T08:57:43.450Z,30.98
2019-06-27T09:00:13.589Z,31.11
2019-06-27T09:02:42.064Z,31.22
2019-06-27T09:05:11.390Z,31.35
2019-06-27T09:07:39.846Z,31.49
2019-06-27T09:10:08.971Z,31.54
2019-06-27T09:12:37.379Z,31.58
2019-06-27T09:15:07.118Z,31.73
2019-06-27T09:17:36.122Z,31.83
2019-06-27T09:20:07.371Z,31.92
2019-06-27T09:22:35.796Z,31.97
2019-06-27T09:25:06.644Z,32.03
2019-06-27T09:27:35.043Z,32.09
2019-06-27T09:30:07.960Z,32.16
2019-06-27T09:32:36.388Z,32.29
2019-06-27T09:35:06.707Z,32.46
2019-06-27T09:37:35.113Z,32.61
2019-06-27T09:40:05.366Z,32.78
2019-06-27T09:42:33.787Z,32.86
2019-06-27T09:45:02.339Z,32.90
2019-06-27T09:47:30.745Z,33.00
2019-06-27T09:49:59.138Z,33.14
2019-06-27T09:52:27.845Z,33.31
2019-06-27T09:54:56.826Z,33.42
2019-06-27T09:57:25.223Z,33.49
2019-06-27T09:59:53.665Z,33.58
2019-06-27T10:02:22.070Z,33.72
2019-06-27T10:04:50.545Z,33.82
2019-06-27T10:07:18.967Z,33.96
2019-06-27T10:09:47.377Z,34.02
2019-06-27T10:12:15.800Z,34.18
2019-06-27T10:14:44.231Z,34.34
2019-06-27T10:17:12.628Z,34.43
2019-06-27T10:19:41.720Z,34.54
2019-06-27T10:22:10.176Z,34.58
2019-06-27T10:24:38.591Z,34.54
2019-06-27T10:27:08.640Z,34.52
2019-06-27T10:29:37.078Z,34.48
2019-06-27T10:32:05.554Z,34.50
2019-06-27T10:34:33.954Z,34.54
2019-06-27T10:37:02.431Z,34.61
2019-06-27T10:39:30.858Z,34.73
2019-06-27T10:41:59.235Z,34.90
2019-06-27T10:44:27.673Z,35.05
2019-06-27T10:46:56.061Z,35.10
2019-06-27T10:49:24.459Z,35.10
2019-06-27T10:51:53.043Z,35.05
2019-06-27T10:54:21.441Z,34.94
2019-06-27T10:56:49.850Z,34.91
2019-06-27T10:59:18.459Z,34.94
2019-06-27T11:01:46.871Z,35.08
2019-06-27T11:04:15.276Z,35.26
2019-06-27T11:06:43.691Z,35.41
2019-06-27T11:09:14.324Z,35.54
2019-06-27T11:11:42.217Z,35.60
2019-06-27T11:14:11.012Z,35.68
2019-06-27T11:16:39.409Z,35.79
2019-06-27T11:19:07.809Z,35.92
2019-06-27T11:21:36.329Z,35.98
2019-06-27T11:24:04.797Z,36.03
2019-06-27T11:26:33.278Z,36.10
2019-06-27T11:29:01.911Z,36.17
2019-06-27T11:31:30.288Z,36.22
2019-06-27T11:33:58.710Z,36.30
2019-06-27T11:36:27.129Z,36.37
2019-06-27T11:38:55.528Z,36.37
2019-06-27T11:41:23.934Z,36.45
2019-06-27T11:43:52.368Z,36.48
2019-06-27T11:46:20.764Z,36.58
2019-06-27T11:48:49.257Z,36.76
2019-06-27T11:51:17.697Z,36.94
2019-06-27T11:53:46.249Z,37.09
2019-06-27T11:56:14.651Z,37.25
2019-06-27T11:58:43.098Z,37.34
2019-06-27T12:01:11.497Z,37.37
2019-06-27T12:03:49.479Z,37.47
2019-06-27T12:06:10.076Z,37.57
2019-06-27T12:08:38.487Z,37.70
2019-06-27T12:11:06.923Z,37.79
2019-06-27T12:13:35.493Z,37.85
2019-06-27T12:16:03.929Z,37.95
2019-06-27T12:18:32.329Z,38.10
2019-06-27T12:21:05.775Z,38.18
2019-06-27T12:23:32.435Z,38.15
2019-06-27T12:26:00.836Z,38.15
2019-06-27T12:28:29.290Z,38.18
2019-06-27T12:30:57.695Z,38.21
2019-06-27T12:33:26.103Z,38.30
2019-06-27T12:35:54.533Z,38.40
2019-06-27T12:38:22.933Z,38.47
2019-06-27T12:40:51.344Z,38.52
2019-06-27T12:43:19.759Z,38.58
2019-06-27T12:45:48.157Z,38.72
2019-06-27T12:48:16.563Z,38.65
2019-06-27T12:50:45.250Z,38.58
2019-06-27T12:53:13.658Z,38.63
2019-06-27T12:55:42.055Z,38.70
2019-06-27T12:58:10.496Z,38.78
2019-06-27T13:00:39.440Z,38.85
2019-06-27T13:03:07.837Z,38.71
2019-06-27T13:05:36.272Z,38.72
2019-06-27T13:08:04.748Z,38.74
2019-06-27T13:10:36.353Z,38.72
2019-06-27T13:13:05.152Z,38.74
2019-06-27T13:15:33.993Z,38.71
2019-06-27T13:18:02.525Z,38.86
2019-06-27T13:20:31.205Z,39.12
2019-06-27T13:22:59.605Z,39.24
2019-06-27T13:25:28.009Z,39.24
2019-06-27T13:27:56.545Z,39.30
2019-06-27T13:30:25.192Z,39.32
2019-06-27T13:32:53.661Z,39.35
2019-06-27T13:35:22.091Z,39.42
2019-06-27T13:37:50.494Z,39.47
2019-06-27T13:40:19.829Z,39.46
2019-06-27T13:42:48.533Z,39.35
2019-06-27T13:45:17.220Z,39.28
2019-06-27T13:47:45.760Z,39.23
2019-06-27T13:50:15.066Z,39.07
2019-06-27T13:52:43.455Z,39.11
2019-06-27T13:55:12.093Z,39.16
2019-06-27T13:57:40.545Z,39.21
2019-06-27T14:00:10.964Z,39.21
2019-06-27T14:02:39.309Z,39.23
2019-06-27T14:05:08.303Z,39.12
2019-06-27T14:07:36.701Z,39.13
2019-06-27T14:10:09.641Z,39.20
2019-06-27T14:12:38.080Z,39.26
2019-06-27T14:15:08.222Z,39.36
2019-06-27T14:17:36.620Z,39.41
2019-06-27T14:20:07.401Z,39.42
2019-06-27T14:22:35.797Z,39.33
2019-06-27T14:25:07.339Z,39.23
2019-06-27T14:27:35.775Z,39.13
2019-06-27T14:30:08.288Z,39.10
2019-06-27T14:32:38.332Z,39.12
2019-06-27T14:35:15.225Z,39.12
2019-06-27T14:37:37.244Z,39.14
2019-06-27T14:40:11.740Z,39.24
2019-06-27T14:42:40.141Z,39.30
2019-06-27T14:45:08.886Z,39.30
2019-06-27T14:47:37.423Z,39.27
2019-06-27T14:50:06.613Z,39.21
2019-06-27T14:52:35.230Z,39.19
2019-06-27T14:55:06.724Z,39.29
2019-06-27T14:57:35.548Z,39.41
2019-06-27T15:00:05.755Z,39.52
2019-06-27T15:02:34.339Z,39.56
2019-06-27T15:05:02.741Z,39.58
2019-06-27T15:07:31.141Z,39.60
2019-06-27T15:09:59.681Z,39.40
2019-06-27T15:12:28.084Z,39.15
2019-06-27T15:14:56.500Z,39.04
2019-06-27T15:17:24.940Z,38.85
2019-06-27T15:19:53.347Z,38.75
2019-06-27T15:22:21.747Z,38.77
2019-06-27T15:24:50.193Z,38.87
2019-06-27T15:27:18.603Z,38.97
2019-06-27T15:29:46.989Z,39.07
2019-06-27T15:32:15.425Z,39.11
2019-06-27T15:34:44.128Z,39.19
2019-06-27T15:37:12.548Z,39.25
2019-06-27T15:39:42.719Z,39.22
2019-06-27T15:42:11.120Z,39.08
2019-06-27T15:44:39.524Z,39.06
2019-06-27T15:47:07.977Z,38.96
2019-06-27T15:49:36.376Z,38.83
2019-06-27T15:52:04.813Z,38.74
2019-06-27T15:54:33.289Z,38.57
2019-06-27T15:57:01.698Z,38.29
2019-06-27T15:59:30.094Z,38.12
2019-06-27T16:01:58.513Z,38.03
2019-06-27T16:04:32.801Z,37.99
2019-06-27T16:06:57.055Z,38.07
2019-06-27T16:09:25.694Z,38.19
2019-06-27T16:11:54.105Z,38.25
2019-06-27T16:14:22.572Z,38.27
2019-06-27T16:16:51.170Z,38.30
2019-06-27T16:19:19.581Z,38.25
2019-06-27T16:21:47.991Z,38.12
2019-06-27T16:24:16.436Z,38.08
2019-06-27T16:26:44.840Z,38.10
2019-06-27T16:29:13.322Z,38.01
2019-06-27T16:31:41.764Z,37.98
2019-06-27T16:34:10.164Z,37.95
2019-06-27T16:36:38.576Z,37.97
2019-06-27T16:39:07.278Z,38.02
2019-06-27T16:41:35.693Z,38.02
2019-06-27T16:44:04.172Z,38.03
2019-06-27T16:46:32.773Z,37.96
2019-06-27T16:49:01.179Z,37.99
2019-06-27T16:51:29.584Z,37.99
2019-06-27T16:53:58.004Z,37.94
2019-06-27T16:56:26.410Z,37.96
2019-06-27T16:58:55.092Z,38.03
2019-06-27T17:01:23.540Z,38.04
2019-06-27T17:03:52.020Z,37.94
2019-06-27T17:06:20.381Z,37.94
2019-06-27T17:08:48.899Z,37.96
2019-06-27T17:11:17.303Z,37.95
2019-06-27T17:13:45.699Z,37.89
2019-06-27T17:16:14.143Z,37.89
2019-06-27T17:18:42.544Z,37.98
2019-06-27T17:21:11.025Z,38.03
2019-06-27T17:23:39.460Z,38.11
2019-06-27T17:26:11.488Z,38.11
2019-06-27T17:28:38.033Z,38.23
2019-06-27T17:31:06.491Z,38.30
2019-06-27T17:33:36.526Z,38.41
2019-06-27T17:36:05.006Z,38.52
2019-06-27T17:38:33.545Z,38.68
2019-06-27T17:41:01.944Z,38.78
2019-06-27T17:43:30.349Z,38.84
2019-06-27T17:45:58.866Z,38.76
2019-06-27T17:48:27.258Z,38.56
2019-06-27T17:50:55.669Z,38.16
2019-06-27T17:53:24.088Z,37.73
2019-06-27T17:55:52.500Z,37.30
2019-06-27T17:58:21.015Z,37.03
2019-06-27T18:00:49.665Z,36.79
2019-06-27T18:03:18.071Z,36.57
2019-06-27T18:05:46.590Z,36.35
2019-06-27T18:08:15.157Z,36.10
2019-06-27T18:10:43.554Z,35.87
2019-06-27T18:13:11.953Z,35.67
2019-06-27T18:15:40.448Z,35.50
2019-06-27T18:18:08.851Z,35.39
2019-06-27T18:20:38.017Z,35.30
2019-06-27T18:23:06.549Z,35.21
2019-06-27T18:25:34.943Z,35.16
2019-06-27T18:28:04.753Z,35.09
2019-06-27T18:30:33.269Z,34.98
2019-06-27T18:33:01.675Z,34.87
2019-06-27T18:35:30.091Z,34.82
2019-06-27T18:37:58.538Z,34.75
2019-06-27T18:40:28.214Z,34.63
2019-06-27T18:42:56.525Z,34.57
2019-06-27T18:45:25.015Z,34.52
2019-06-27T18:47:53.487Z,34.47
2019-06-27T18:50:21.891Z,34.37
2019-06-27T18:52:50.335Z,34.26
2019-06-27T18:55:18.809Z,34.15
2019-06-27T18:57:47.217Z,34.10
2019-06-27T19:00:15.982Z,33.92
2019-06-27T19:02:44.453Z,33.86
2019-06-27T19:05:13.195Z,33.79
2019-06-27T19:07:45.818Z,33.69
2019-06-27T19:10:11.937Z,33.58
2019-06-27T19:12:40.442Z,33.44
2019-06-27T19:15:11.076Z,33.38
2019-06-27T19:17:39.544Z,33.28
2019-06-27T19:20:25.695Z,33.22
2019-06-27T19:22:58.731Z,33.18
2019-06-27T19:25:28.781Z,33.08
2019-06-27T19:27:57.202Z,33.00
2019-06-27T19:30:25.601Z,32.97
2019-06-27T19:32:54.103Z,32.97
2019-06-27T19:35:22.639Z,32.93
2019-06-27T19:38:01.483Z,32.84
2019-06-27T19:40:21.508Z,32.76
2019-06-27T19:42:52.287Z,32.70
2019-06-27T19:45:21.032Z,32.65
2019-06-27T19:47:49.504Z,32.58
2019-06-27T19:50:18.287Z,32.50
2019-06-27T19:52:46.765Z,32.45
2019-06-27T19:55:15.299Z,32.41
2019-06-27T19:57:43.894Z,32.42
2019-06-27T20:00:12.925Z,32.30
2019-06-27T20:02:41.334Z,32.15
2019-06-27T20:05:10.112Z,32.01
2019-06-27T20:07:38.514Z,31.94
2019-06-27T20:10:11.510Z,31.95
2019-06-27T20:12:38.301Z,31.88
2019-06-27T20:15:07.751Z,31.77
2019-06-27T20:17:36.309Z,31.72
2019-06-27T20:20:06.452Z,31.58
2019-06-27T20:22:34.863Z,31.46
2019-06-27T20:25:03.268Z,31.41
2019-06-27T20:27:31.773Z,31.34
2019-06-27T20:30:00.175Z,31.23
2019-06-27T20:32:29.430Z,31.18
2019-06-27T20:34:58.052Z,31.13
2019-06-27T20:37:27.147Z,31.01
2019-06-27T20:39:55.728Z,30.87
2019-06-27T20:42:24.179Z,30.84
2019-06-27T20:44:52.578Z,30.78
2019-06-27T20:47:21.054Z,30.65
2019-06-27T20:49:49.548Z,30.63
2019-06-27T20:52:17.960Z,30.67
2019-06-27T20:54:46.382Z,30.55
2019-06-27T20:57:14.807Z,30.41
2019-06-27T20:59:43.205Z,30.33
2019-06-27T21:02:11.619Z,30.33
2019-06-27T21:04:40.082Z,30.28
2019-06-27T21:07:09.949Z,30.22
2019-06-27T21:09:38.640Z,30.19
2019-06-27T21:12:07.143Z,30.10
2019-06-27T21:14:35.543Z,30.04
2019-06-27T21:17:04.012Z,30.10
2019-06-27T21:19:32.464Z,30.01
2019-06-27T21:22:00.952Z,29.98
2019-06-27T21:24:29.365Z,29.95
2019-06-27T21:26:57.797Z,29.92
2019-06-27T21:29:26.189Z,29.94
2019-06-27T21:31:54.824Z,29.94
2019-06-27T21:34:23.302Z,30.00
2019-06-27T21:36:51.696Z,30.03
2019-06-27T21:39:20.084Z,29.98
2019-06-27T21:41:48.568Z,30.01
2019-06-27T21:44:16.914Z,30.05
2019-06-27T21:46:45.335Z,29.99
2019-06-27T21:49:13.770Z,29.94
2019-06-27T21:51:42.165Z,29.89
2019-06-27T21:54:10.581Z,29.80
2019-06-27T21:56:39.017Z,29.74
2019-06-27T21:59:07.421Z,29.70
2019-06-27T22:01:35.831Z,29.76
2019-06-27T22:04:04.318Z,29.81
2019-06-27T22:06:32.860Z,29.80
2019-06-27T22:09:01.262Z,29.75
2019-06-27T22:11:29.824Z,29.68
2019-06-27T22:13:58.366Z,29.58
2019-06-27T22:16:26.839Z,29.52
2019-06-27T22:18:55.288Z,29.43
2019-06-27T22:21:23.676Z,29.41
2019-06-27T22:23:53.716Z,29.41
2019-06-27T22:26:23.017Z,29.39
2019-06-27T22:28:51.417Z,29.28
2019-06-27T22:31:19.810Z,29.16
2019-06-27T22:33:48.228Z,29.11
2019-06-27T22:36:16.711Z,29.13
2019-06-27T22:39:03.367Z,29.08
2019-06-27T22:41:49.609Z,29.01
2019-06-27T22:44:36.156Z,28.88
2019-06-27T22:47:22.648Z,28.79
2019-06-27T22:49:52.323Z,28.70
2019-06-27T22:52:34.005Z,28.58
2019-06-27T22:55:10.289Z,28.50
2019-06-27T22:57:38.673Z,28.43
2019-06-27T23:00:07.334Z,28.38
2019-06-27T23:02:35.761Z,28.40
2019-06-27T23:05:05.691Z,28.40
2019-06-27T23:07:34.098Z,28.27
2019-06-27T23:10:02.585Z,28.27
2019-06-27T23:12:31.056Z,28.28
2019-06-27T23:14:59.449Z,28.35
2019-06-27T23:17:28.014Z,28.47
2019-06-27T23:19:56.406Z,28.52
2019-06-27T23:22:24.811Z,28.48
2019-06-27T23:24:53.246Z,28.46
2019-06-27T23:27:21.642Z,28.43
2019-06-27T23:29:50.043Z,28.43
2019-06-27T23:32:18.456Z,28.40
2019-06-27T23:34:46.854Z,28.35
2019-06-27T23:37:15.318Z,28.18
2019-06-27T23:39:43.750Z,28.00
2019-06-27T23:42:12.148Z,27.91
2019-06-27T23:44:40.550Z,27.71
2019-06-27T23:47:08.975Z,27.63
2019-06-27T23:49:37.376Z,27.60
2019-06-27T23:52:06.140Z,27.59
2019-06-27T23:54:34.569Z,27.54
2019-06-27T23:57:02.971Z,27.48
2019-06-27T23:59:31.368Z,27.48
